createdAt,value
2018-04-06T00:00:31.461Z,5.39
2018-04-06T00:01:31.885Z,5.39
2018-04-06T00:02:32.310Z,5.36
2018-04-06T00:03:32.727Z,5.46
2018-04-06T00:04:33.152Z,5.43
2018-04-06T00:05:33.572Z,5.46
2018-04-06T00:06:33.988Z,5.39
2018-04-06T00:07:34.434Z,5.32
2018-04-06T00:08:34.836Z,5.38
2018-04-06T00:09:35.319Z,5.39
2018-04-06T00:10:35.677Z,5.36
2018-04-06T00:11:36.126Z,5.33
2018-04-06T00:12:36.538Z,5.26
2018-04-06T00:13:36.956Z,5.32
2018-04-06T00:14:37.373Z,5.30
2018-04-06T00:15:37.798Z,5.28
2018-04-06T00:16:38.228Z,5.26
2018-04-06T00:17:38.670Z,5.23
2018-04-06T00:18:39.058Z,5.26
2018-04-06T00:19:39.480Z,5.32
2018-04-06T00:20:39.894Z,5.21
2018-04-06T00:21:40.315Z,5.28
2018-04-06T00:22:40.735Z,5.26
2018-04-06T00:23:41.168Z,5.23
2018-04-06T00:24:41.587Z,5.25
2018-04-06T00:25:42.006Z,5.25
2018-04-06T00:26:42.508Z,5.28
2018-04-06T00:27:42.839Z,5.23
2018-04-06T00:28:43.279Z,5.20
2018-04-06T00:29:43.692Z,5.20
2018-04-06T00:30:44.118Z,5.12
2018-04-06T00:31:44.551Z,5.17
2018-04-06T00:32:44.983Z,5.23
2018-04-06T00:33:45.395Z,5.15
2018-04-06T00:34:45.797Z,5.15
2018-04-06T00:35:46.218Z,5.15
2018-04-06T00:36:46.638Z,5.17
2018-04-06T00:37:47.108Z,5.18
2018-04-06T00:38:47.479Z,5.18
2018-04-06T00:39:47.906Z,5.20
2018-04-06T00:40:48.334Z,5.29
2018-04-06T00:41:48.749Z,5.20
2018-04-06T00:42:49.163Z,5.17
2018-04-06T00:43:49.599Z,5.15
2018-04-06T00:44:50.022Z,5.18
2018-04-06T00:45:50.435Z,5.08
2018-04-06T00:46:50.854Z,5.15
2018-04-06T00:47:51.269Z,5.20
2018-04-06T00:48:51.696Z,5.15
2018-04-06T00:49:52.113Z,5.15
2018-04-06T00:50:52.533Z,5.17
2018-04-06T00:51:52.956Z,5.18
2018-04-06T00:52:53.385Z,5.11
2018-04-06T00:53:53.805Z,5.11
2018-04-06T00:54:54.224Z,5.15
2018-04-06T00:55:54.656Z,5.18
2018-04-06T00:56:55.059Z,5.18
2018-04-06T00:57:55.485Z,5.15
2018-04-06T00:58:55.907Z,5.17
2018-04-06T00:59:56.326Z,5.15
2018-04-06T01:00:56.750Z,5.23
2018-04-06T01:01:57.174Z,5.10
2018-04-06T01:02:57.591Z,5.12
2018-04-06T01:03:58.014Z,5.12
2018-04-06T01:04:58.439Z,5.08
2018-04-06T01:05:58.855Z,5.11
2018-04-06T01:06:59.867Z,5.07
2018-04-06T01:07:59.700Z,5.10
2018-04-06T01:09:00.123Z,5.05
2018-04-06T01:10:00.542Z,5.00
2018-04-06T01:11:00.964Z,5.05
2018-04-06T01:12:01.394Z,5.11
2018-04-06T01:13:01.812Z,5.08
2018-04-06T01:14:02.227Z,4.99
2018-04-06T01:15:02.653Z,5.02
2018-04-06T01:16:03.073Z,5.08
2018-04-06T01:17:03.510Z,5.04
2018-04-06T01:18:03.919Z,4.99
2018-04-06T01:19:04.340Z,5.07
2018-04-06T01:20:04.757Z,5.02
2018-04-06T01:21:05.178Z,4.96
2018-04-06T01:22:05.600Z,4.93
2018-04-06T01:23:06.038Z,4.90
2018-04-06T01:24:06.459Z,4.99
2018-04-06T01:25:06.867Z,4.93
2018-04-06T01:26:07.284Z,4.97
2018-04-06T01:27:07.703Z,5.02
2018-04-06T01:28:08.136Z,4.87
2018-04-06T01:29:08.551Z,4.94
2018-04-06T01:30:08.970Z,4.97
2018-04-06T01:31:09.392Z,4.96
2018-04-06T01:32:09.812Z,4.89
2018-04-06T01:33:10.237Z,4.84
2018-04-06T01:34:10.653Z,4.89
2018-04-06T01:35:11.080Z,4.87
2018-04-06T01:36:11.495Z,4.90
2018-04-06T01:37:11.923Z,4.90
2018-04-06T01:38:12.344Z,4.89
2018-04-06T01:39:12.761Z,4.87
2018-04-06T01:40:13.185Z,4.93
2018-04-06T01:41:13.607Z,4.84
2018-04-06T01:42:14.025Z,4.90
2018-04-06T01:43:14.444Z,4.84
2018-04-06T01:44:14.868Z,4.87
2018-04-06T01:45:15.292Z,4.82
2018-04-06T01:46:15.709Z,4.86
2018-04-06T01:47:16.127Z,4.87
2018-04-06T01:48:16.551Z,4.86
2018-04-06T01:49:16.977Z,4.75
2018-04-06T01:50:17.408Z,4.78
2018-04-06T01:51:17.822Z,4.78
2018-04-06T01:52:18.232Z,4.75
2018-04-06T01:53:18.667Z,4.75
2018-04-06T01:54:19.095Z,4.78
2018-04-06T01:55:19.505Z,4.78
2018-04-06T01:56:19.930Z,4.84
2018-04-06T01:57:20.350Z,4.78
2018-04-06T01:58:20.765Z,4.80
2018-04-06T01:59:21.184Z,4.74
2018-04-06T02:00:21.609Z,4.82
2018-04-06T02:01:22.041Z,4.74
2018-04-06T02:02:22.471Z,4.70
2018-04-06T02:03:22.870Z,4.75
2018-04-06T02:04:23.342Z,4.66
2018-04-06T02:05:23.710Z,4.80
2018-04-06T02:06:24.136Z,4.84
2018-04-06T02:07:24.558Z,4.75
2018-04-06T02:08:24.974Z,4.77
2018-04-06T02:09:25.418Z,4.75
2018-04-06T02:10:25.824Z,4.77
2018-04-06T02:11:26.241Z,4.75
2018-04-06T02:12:26.661Z,4.68
2018-04-06T02:13:27.091Z,4.71
2018-04-06T02:14:27.508Z,4.73
2018-04-06T02:15:27.925Z,4.66
2018-04-06T02:16:28.366Z,4.77
2018-04-06T02:17:28.768Z,4.74
2018-04-06T02:18:29.190Z,4.74
2018-04-06T02:19:29.613Z,4.75
2018-04-06T02:20:30.031Z,4.71
2018-04-06T02:21:30.456Z,4.63
2018-04-06T02:22:30.871Z,4.75
2018-04-06T02:23:31.299Z,4.70
2018-04-06T02:24:31.732Z,4.60
2018-04-06T02:25:32.136Z,4.60
2018-04-06T02:26:32.562Z,4.60
2018-04-06T02:27:32.979Z,4.60
2018-04-06T02:28:33.405Z,4.60
2018-04-06T02:29:33.822Z,4.48
2018-04-06T02:30:34.249Z,4.53
2018-04-06T02:31:34.664Z,4.52
2018-04-06T02:32:35.080Z,4.59
2018-04-06T02:33:35.510Z,4.59
2018-04-06T02:34:35.927Z,4.56
2018-04-06T02:35:36.350Z,4.52
2018-04-06T02:36:36.766Z,4.55
2018-04-06T02:37:37.192Z,4.66
2018-04-06T02:38:37.609Z,4.49
2018-04-06T02:39:38.036Z,4.56
2018-04-06T02:40:38.454Z,4.50
2018-04-06T02:41:38.878Z,4.52
2018-04-06T02:42:39.299Z,4.55
2018-04-06T02:43:39.758Z,4.56
2018-04-06T02:44:40.162Z,4.56
2018-04-06T02:45:40.578Z,4.48
2018-04-06T02:46:40.983Z,4.48
2018-04-06T02:47:41.398Z,4.56
2018-04-06T02:48:41.822Z,4.44
2018-04-06T02:49:42.240Z,4.41
2018-04-06T02:50:43.451Z,4.53
2018-04-06T02:51:43.093Z,4.56
2018-04-06T02:52:43.512Z,4.40
2018-04-06T02:53:43.989Z,4.42
2018-04-06T02:54:44.341Z,4.52
2018-04-06T02:55:44.779Z,4.50
2018-04-06T02:56:45.191Z,4.49
2018-04-06T02:57:45.615Z,4.40
2018-04-06T02:58:46.032Z,4.56
2018-04-06T02:59:46.458Z,4.49
2018-04-06T03:00:46.879Z,4.49
2018-04-06T03:01:47.294Z,4.50
2018-04-06T03:02:47.712Z,4.49
2018-04-06T03:03:48.139Z,4.53
2018-04-06T03:04:48.556Z,4.49
2018-04-06T03:05:48.980Z,4.52
2018-04-06T03:06:49.402Z,4.40
2018-04-06T03:07:49.820Z,4.41
2018-04-06T03:08:50.248Z,4.53
2018-04-06T03:09:50.664Z,4.50
2018-04-06T03:10:51.085Z,4.53
2018-04-06T03:11:51.507Z,4.52
2018-04-06T03:12:51.928Z,4.50
2018-04-06T03:13:52.341Z,4.49
2018-04-06T03:14:52.789Z,4.49
2018-04-06T03:15:53.193Z,4.37
2018-04-06T03:16:53.601Z,4.48
2018-04-06T03:17:54.048Z,4.53
2018-04-06T03:18:54.453Z,4.48
2018-04-06T03:19:54.878Z,4.38
2018-04-06T03:20:55.295Z,4.40
2018-04-06T03:21:55.712Z,4.37
2018-04-06T03:22:56.139Z,4.40
2018-04-06T03:23:56.551Z,4.45
2018-04-06T03:24:56.982Z,4.49
2018-04-06T03:25:57.397Z,4.37
2018-04-06T03:26:57.816Z,4.41
2018-04-06T03:27:58.242Z,4.40
2018-04-06T03:28:58.704Z,4.48
2018-04-06T03:29:59.093Z,4.38
2018-04-06T03:30:59.509Z,4.42
2018-04-06T03:31:59.924Z,4.41
2018-04-06T03:33:00.363Z,4.31
2018-04-06T03:34:00.764Z,4.41
2018-04-06T03:35:01.189Z,4.42
2018-04-06T03:36:01.612Z,4.42
2018-04-06T03:37:02.026Z,4.35
2018-04-06T03:38:02.444Z,4.32
2018-04-06T03:39:02.870Z,4.41
2018-04-06T03:40:03.300Z,4.32
2018-04-06T03:41:03.712Z,4.38
2018-04-06T03:42:04.132Z,4.41
2018-04-06T03:43:04.554Z,4.32
2018-04-06T03:44:04.978Z,4.28
2018-04-06T03:45:05.397Z,4.38
2018-04-06T03:46:05.813Z,4.31
2018-04-06T03:47:06.236Z,4.31
2018-04-06T03:48:06.656Z,4.32
2018-04-06T03:49:07.078Z,4.32
2018-04-06T03:50:07.503Z,4.35
2018-04-06T03:51:07.916Z,4.32
2018-04-06T03:52:08.341Z,4.35
2018-04-06T03:53:08.768Z,4.32
2018-04-06T03:54:09.188Z,4.32
2018-04-06T03:55:09.610Z,4.31
2018-04-06T03:56:10.032Z,4.32
2018-04-06T03:57:10.442Z,4.30
2018-04-06T03:58:10.897Z,4.30
2018-04-06T03:59:11.295Z,4.37
2018-04-06T04:00:11.710Z,4.30
2018-04-06T04:01:12.127Z,4.31
2018-04-06T04:02:12.552Z,4.32
2018-04-06T04:03:12.970Z,4.37
2018-04-06T04:04:13.404Z,4.31
2018-04-06T04:05:13.814Z,4.31
2018-04-06T04:06:14.238Z,4.35
2018-04-06T04:07:14.659Z,4.34
2018-04-06T04:08:15.074Z,4.31
2018-04-06T04:09:15.500Z,4.32
2018-04-06T04:10:15.916Z,4.28
2018-04-06T04:11:16.340Z,4.34
2018-04-06T04:12:16.755Z,4.37
2018-04-06T04:13:17.177Z,4.30
2018-04-06T04:14:17.609Z,4.35
2018-04-06T04:15:18.030Z,4.34
2018-04-06T04:16:18.444Z,4.30
2018-04-06T04:17:18.866Z,4.34
2018-04-06T04:18:19.291Z,4.31
2018-04-06T04:19:19.706Z,4.35
2018-04-06T04:20:20.127Z,4.30
2018-04-06T04:21:20.544Z,4.31
2018-04-06T04:22:20.971Z,4.30
2018-04-06T04:23:21.387Z,4.32
2018-04-06T04:24:21.817Z,4.38
2018-04-06T04:25:22.249Z,4.37
2018-04-06T04:26:22.671Z,4.45
2018-04-06T04:27:23.083Z,4.42
2018-04-06T04:28:23.501Z,4.30
2018-04-06T04:29:23.921Z,4.35
2018-04-06T04:30:24.330Z,4.32
2018-04-06T04:31:24.760Z,4.35
2018-04-06T04:32:25.176Z,4.34
2018-04-06T04:33:25.600Z,4.32
2018-04-06T04:34:26.050Z,4.40
2018-04-06T04:35:26.441Z,4.32
2018-04-06T04:36:26.877Z,4.37
2018-04-06T04:37:27.292Z,4.31
2018-04-06T04:38:28.462Z,4.34
2018-04-06T04:39:28.123Z,4.37
2018-04-06T04:40:28.553Z,4.30
2018-04-06T04:41:28.970Z,4.30
2018-04-06T04:42:29.389Z,4.34
2018-04-06T04:43:29.804Z,4.28
2018-04-06T04:44:30.244Z,4.30
2018-04-06T04:45:30.645Z,4.30
2018-04-06T04:46:31.077Z,4.38
2018-04-06T04:47:31.496Z,4.31
2018-04-06T04:48:31.919Z,4.34
2018-04-06T04:49:32.372Z,4.31
2018-04-06T04:50:32.762Z,4.23
2018-04-06T04:51:33.176Z,4.28
2018-04-06T04:52:33.594Z,4.35
2018-04-06T04:53:34.021Z,4.32
2018-04-06T04:54:34.436Z,4.35
2018-04-06T04:55:34.875Z,4.34
2018-04-06T04:56:35.278Z,4.26
2018-04-06T04:57:35.701Z,4.37
2018-04-06T04:58:36.183Z,4.30
2018-04-06T04:59:36.552Z,4.34
2018-04-06T05:00:36.971Z,4.20
2018-04-06T05:01:37.388Z,4.37
2018-04-06T05:02:37.808Z,4.34
2018-04-06T05:03:38.229Z,4.30
2018-04-06T05:04:38.646Z,4.38
2018-04-06T05:05:39.077Z,4.34
2018-04-06T05:06:39.489Z,4.26
2018-04-06T05:07:39.922Z,4.30
2018-04-06T05:08:40.334Z,4.32
2018-04-06T05:09:40.756Z,4.28
2018-04-06T05:10:41.174Z,4.32
2018-04-06T05:11:41.610Z,4.34
2018-04-06T05:12:42.058Z,4.35
2018-04-06T05:13:42.454Z,4.30
2018-04-06T05:14:42.863Z,4.31
2018-04-06T05:15:43.280Z,4.32
2018-04-06T05:16:43.696Z,4.41
2018-04-06T05:17:44.130Z,4.26
2018-04-06T05:18:44.542Z,4.42
2018-04-06T05:19:44.962Z,4.49
2018-04-06T05:20:45.390Z,4.45
2018-04-06T05:21:45.810Z,4.38
2018-04-06T05:22:46.238Z,4.38
2018-04-06T05:23:46.650Z,4.49
2018-04-06T05:24:47.071Z,4.49
2018-04-06T05:25:47.497Z,4.49
2018-04-06T05:26:47.910Z,4.48
2018-04-06T05:27:48.336Z,4.53
2018-04-06T05:28:48.754Z,4.52
2018-04-06T05:29:49.178Z,4.60
2018-04-06T05:30:49.596Z,4.56
2018-04-06T05:31:50.018Z,4.53
2018-04-06T05:32:50.448Z,4.55
2018-04-06T05:33:50.864Z,4.52
2018-04-06T05:34:51.296Z,4.41
2018-04-06T05:35:51.704Z,4.53
2018-04-06T05:36:52.129Z,4.52
2018-04-06T05:37:52.543Z,4.58
2018-04-06T05:38:53.075Z,4.52
2018-04-06T05:39:53.390Z,4.62
2018-04-06T05:40:53.812Z,4.62
2018-04-06T05:41:54.237Z,4.73
2018-04-06T05:42:54.652Z,4.68
2018-04-06T05:43:55.081Z,4.71
2018-04-06T05:44:55.502Z,4.74
2018-04-06T05:45:55.913Z,4.74
2018-04-06T05:46:56.339Z,4.78
2018-04-06T05:47:56.763Z,4.82
2018-04-06T05:48:57.185Z,4.74
2018-04-06T05:49:57.603Z,4.75
2018-04-06T05:50:58.028Z,4.87
2018-04-06T05:51:58.445Z,4.90
2018-04-06T05:52:58.863Z,4.90
2018-04-06T05:53:59.292Z,4.92
2018-04-06T05:54:59.705Z,4.86
2018-04-06T05:56:00.133Z,4.99
2018-04-06T05:57:00.559Z,5.04
2018-04-06T05:58:00.976Z,4.93
2018-04-06T05:59:01.396Z,4.89
2018-04-06T06:00:01.822Z,4.87
2018-04-06T06:01:02.240Z,4.87
2018-04-06T06:02:02.661Z,4.90
2018-04-06T06:03:03.090Z,4.87
2018-04-06T06:04:03.506Z,4.80
2018-04-06T06:05:03.931Z,4.78
2018-04-06T06:06:04.353Z,4.84
2018-04-06T06:07:04.807Z,4.99
2018-04-06T06:08:05.198Z,4.92
2018-04-06T06:09:05.617Z,5.04
2018-04-06T06:10:06.040Z,5.04
2018-04-06T06:11:06.456Z,5.10
2018-04-06T06:12:06.891Z,5.08
2018-04-06T06:13:07.307Z,5.10
2018-04-06T06:14:07.767Z,5.17
2018-04-06T06:15:08.162Z,5.23
2018-04-06T06:16:08.575Z,5.30
2018-04-06T06:17:08.989Z,5.25
2018-04-06T06:18:09.411Z,5.26
2018-04-06T06:19:09.833Z,5.29
2018-04-06T06:20:10.263Z,5.47
2018-04-06T06:21:10.681Z,5.35
2018-04-06T06:22:11.104Z,5.41
2018-04-06T06:23:26.477Z,5.47
2018-04-06T06:24:11.942Z,5.59
2018-04-06T06:25:12.372Z,5.57
2018-04-06T06:26:12.797Z,5.47
2018-04-06T06:27:13.228Z,5.38
2018-04-06T06:28:13.630Z,5.38
2018-04-06T06:29:14.099Z,5.28
2018-04-06T06:30:14.519Z,5.48
2018-04-06T06:31:14.902Z,5.46
2018-04-06T06:32:15.395Z,5.26
2018-04-06T06:33:15.742Z,5.39
2018-04-06T06:34:16.168Z,5.47
2018-04-06T06:35:16.587Z,5.41
2018-04-06T06:36:17.035Z,5.44
2018-04-06T06:37:17.441Z,5.35
2018-04-06T06:38:17.884Z,5.43
2018-04-06T06:39:18.283Z,5.46
2018-04-06T06:40:18.711Z,5.39
2018-04-06T06:41:19.128Z,5.48
2018-04-06T06:42:19.552Z,5.56
2018-04-06T06:43:19.978Z,5.46
2018-04-06T06:44:20.416Z,5.56
2018-04-06T06:45:20.815Z,5.66
2018-04-06T06:46:21.242Z,5.83
2018-04-06T06:47:36.484Z,5.72
2018-04-06T06:48:22.115Z,5.79
2018-04-06T06:49:22.503Z,5.73
2018-04-06T06:50:22.935Z,5.79
2018-04-06T06:51:23.366Z,5.83
2018-04-06T06:52:23.787Z,5.83
2018-04-06T06:53:24.205Z,5.93
2018-04-06T06:57:50.071Z,5.97
2018-04-06T06:58:32.194Z,5.98
2018-04-06T07:00:28.711Z,6.05
2018-04-06T07:01:29.126Z,6.09
2018-04-06T07:02:29.551Z,6.08
2018-04-06T07:03:29.973Z,5.84
2018-04-06T07:06:04.467Z,5.86
2018-04-06T07:07:04.886Z,5.87
2018-04-06T07:08:59.419Z,5.89
2018-04-06T07:17:29.700Z,6.30
2018-04-06T07:35:16.727Z,6.52
2018-04-06T07:37:43.698Z,6.70
2018-04-06T07:38:32.835Z,6.78
2018-04-06T07:42:00.490Z,7.28
2018-04-06T07:43:00.873Z,7.39
2018-04-06T07:44:55.422Z,7.63
2018-04-06T07:45:55.831Z,7.73
2018-04-06T07:47:50.387Z,8.05
2018-04-06T07:48:50.859Z,8.33
2018-04-06T07:50:45.421Z,8.82
2018-04-06T07:51:45.790Z,9.11
2018-04-06T07:53:41.328Z,9.32
2018-04-06T07:54:41.757Z,9.08
2018-04-06T07:56:36.323Z,9.28
2018-04-06T07:57:36.739Z,8.49
2018-04-06T08:01:05.351Z,8.78
2018-04-06T08:03:20.138Z,9.43
2018-04-06T08:04:20.556Z,10.46
2018-04-06T08:10:54.354Z,12.94
2018-04-06T08:16:16.265Z,10.44
2018-04-06T08:18:32.216Z,13.20
2018-04-06T08:20:46.681Z,15.39
2018-04-06T08:21:47.122Z,14.23
2018-04-06T08:25:37.628Z,14.73
2018-04-06T08:26:15.336Z,15.25
2018-04-06T08:28:41.625Z,17.57
2018-04-06T08:30:36.914Z,16.97
2018-04-06T08:38:56.042Z,16.26
2018-04-06T08:42:59.389Z,14.86
2018-04-06T08:45:26.920Z,16.61
2018-04-06T08:46:15.618Z,17.63
2018-04-06T08:48:12.923Z,14.68
2018-04-06T08:50:24.952Z,13.56
2018-04-06T08:53:05.948Z,16.31
2018-04-06T08:53:40.139Z,15.54
2018-04-06T08:57:21.557Z,17.05
2018-04-06T08:59:24.571Z,18.03
2018-04-06T09:00:25.030Z,18.23
2018-04-06T09:02:19.610Z,19.55
2018-04-06T09:03:20.081Z,17.01
2018-04-06T09:05:14.626Z,18.10
2018-04-06T09:06:15.100Z,17.80
2018-04-06T09:08:09.694Z,19.30
2018-04-06T09:09:10.115Z,19.67
2018-04-06T09:11:04.700Z,18.56
2018-04-06T09:13:19.450Z,16.43
2018-04-06T09:14:22.818Z,17.79
2018-04-06T09:18:59.345Z,18.43
2018-04-06T09:19:27.998Z,19.34
2018-04-06T09:21:22.588Z,19.77
2018-04-06T09:22:23.033Z,20.14
2018-04-06T09:23:23.491Z,20.63
2018-04-06T09:24:23.932Z,17.97
2018-04-06T09:25:24.379Z,19.09
2018-04-06T09:26:24.829Z,17.64
2018-04-06T09:27:25.274Z,16.86
2018-04-06T09:28:25.729Z,16.72
2018-04-06T09:29:26.167Z,18.55
2018-04-06T09:30:26.626Z,18.83
2018-04-06T09:31:27.070Z,20.28
2018-04-06T09:32:27.524Z,20.88
2018-04-06T09:33:27.973Z,20.59
2018-04-06T09:34:28.419Z,20.41
2018-04-06T09:35:28.875Z,18.38
2018-04-06T09:36:50.483Z,15.03
2018-04-06T09:37:29.772Z,14.14
2018-04-06T09:38:30.213Z,14.43
2018-04-06T09:39:30.676Z,14.15
2018-04-06T09:40:54.851Z,13.18
2018-04-06T09:43:08.649Z,13.67
2018-04-06T09:44:09.150Z,13.75
2018-04-06T09:45:09.548Z,13.35
2018-04-06T09:46:09.991Z,13.93
2018-04-06T09:47:10.441Z,13.95
2018-04-06T09:48:10.888Z,14.37
2018-04-06T09:49:11.339Z,14.23
2018-04-06T09:50:11.794Z,13.85
2018-04-06T09:51:12.232Z,14.97
2018-04-06T09:52:12.684Z,16.69
2018-04-06T09:53:13.147Z,17.98
2018-04-06T09:54:13.589Z,18.56
2018-04-06T09:55:14.044Z,17.63
2018-04-06T09:56:14.491Z,15.73
2018-04-06T09:57:14.936Z,13.65
2018-04-06T09:58:15.391Z,13.96
2018-04-06T09:59:15.841Z,14.04
2018-04-06T10:00:16.289Z,14.10
2018-04-06T10:01:16.738Z,16.81
2018-04-06T10:02:17.196Z,17.67
2018-04-06T10:03:17.658Z,16.20
2018-04-06T10:04:18.102Z,14.25
2018-04-06T10:05:18.546Z,13.96
2018-04-06T10:06:19.061Z,14.33
2018-04-06T10:07:19.441Z,15.55
2018-04-06T10:08:19.899Z,15.09
2018-04-06T10:09:20.343Z,15.29
2018-04-06T10:10:20.802Z,15.15
2018-04-06T10:11:21.249Z,14.65
2018-04-06T10:12:21.705Z,14.85
2018-04-06T10:13:22.160Z,16.39
2018-04-06T10:14:22.614Z,18.52
2018-04-06T10:15:23.056Z,19.19
2018-04-06T10:16:23.516Z,16.72
2018-04-06T10:17:23.963Z,16.51
2018-04-06T10:18:24.414Z,15.55
2018-04-06T10:19:24.887Z,17.64
2018-04-06T10:20:25.326Z,18.62
2018-04-06T10:21:25.775Z,17.82
2018-04-06T10:22:26.239Z,17.70
2018-04-06T10:23:26.679Z,19.21
2018-04-06T10:24:27.139Z,20.85
2018-04-06T10:25:27.636Z,21.83
2018-04-06T10:26:28.061Z,22.80
2018-04-06T10:27:28.505Z,22.53
2018-04-06T10:28:28.962Z,22.25
2018-04-06T10:29:29.413Z,21.93
2018-04-06T10:30:30.080Z,21.95
2018-04-06T10:31:32.969Z,22.26
2018-04-06T10:32:30.776Z,22.57
2018-04-06T10:33:45.972Z,23.25
2018-04-06T10:36:04.836Z,21.52
2018-04-06T10:37:05.287Z,21.22
2018-04-06T10:38:59.899Z,23.81
2018-04-06T10:40:00.347Z,22.43
2018-04-06T10:41:54.968Z,22.50
2018-04-06T10:42:55.413Z,19.21
2018-04-06T10:44:50.032Z,22.53
2018-04-06T10:45:50.485Z,23.24
2018-04-06T10:47:45.114Z,22.69
2018-04-06T10:48:45.553Z,22.44
2018-04-06T10:50:42.918Z,24.16
2018-04-06T10:51:41.604Z,24.63
2018-04-06T10:53:36.208Z,21.76
2018-04-06T10:54:36.664Z,22.83
2018-04-06T10:56:31.277Z,21.46
2018-04-06T10:57:31.728Z,20.29
2018-04-06T10:59:26.347Z,18.75
2018-04-06T11:00:26.803Z,18.92
2018-04-06T11:02:21.422Z,22.11
2018-04-06T11:03:21.876Z,23.06
2018-04-06T11:05:16.528Z,22.25
2018-04-06T11:06:16.987Z,21.99
2018-04-06T11:08:11.613Z,21.40
2018-04-06T11:09:12.071Z,24.02
2018-04-06T11:11:06.675Z,23.12
2018-04-06T11:12:07.151Z,23.24
2018-04-06T11:13:07.613Z,22.00
2018-04-06T11:14:08.059Z,22.69
2018-04-06T11:15:08.521Z,22.99
2018-04-06T11:16:08.978Z,22.76
2018-04-06T11:17:09.442Z,20.84
2018-04-06T11:18:09.953Z,19.09
2018-04-06T11:19:10.387Z,16.74
2018-04-06T11:20:10.859Z,16.32
2018-04-06T11:21:11.276Z,17.94
2018-04-06T11:22:11.739Z,20.21
2018-04-06T11:23:12.279Z,18.96
2018-04-06T11:24:12.679Z,20.51
2018-04-06T11:25:13.150Z,20.66
2018-04-06T11:26:13.579Z,21.37
2018-04-06T11:27:14.021Z,20.11
2018-04-06T11:28:14.508Z,18.35
2018-04-06T11:29:14.937Z,20.03
2018-04-06T11:30:15.414Z,21.30
2018-04-06T11:31:15.867Z,21.66
2018-04-06T11:32:16.318Z,22.45
2018-04-06T11:33:16.789Z,21.96
2018-04-06T11:34:17.249Z,21.64
2018-04-06T11:35:17.705Z,21.70
2018-04-06T11:36:18.160Z,22.22
2018-04-06T11:37:18.614Z,20.37
2018-04-06T11:38:19.089Z,20.56
2018-04-06T11:39:19.699Z,21.57
2018-04-06T11:40:19.995Z,21.95
2018-04-06T11:41:20.480Z,19.96
2018-04-06T11:42:20.957Z,16.17
2018-04-06T11:43:21.384Z,16.35
2018-04-06T11:44:21.822Z,15.94
2018-04-06T11:45:22.285Z,17.38
2018-04-06T11:46:22.733Z,16.28
2018-04-06T11:47:23.186Z,17.30
2018-04-06T11:48:23.640Z,17.14
2018-04-06T11:49:24.095Z,17.22
2018-04-06T11:50:24.539Z,16.00
2018-04-06T11:51:25.000Z,15.52
2018-04-06T11:52:25.441Z,14.81
2018-04-06T11:53:25.882Z,14.37
2018-04-06T11:54:26.361Z,14.73
2018-04-06T11:55:26.783Z,14.77
2018-04-06T11:56:27.245Z,14.72
2018-04-06T11:57:27.672Z,14.62
2018-04-06T11:58:28.106Z,14.43
2018-04-06T11:59:28.547Z,13.72
2018-04-06T12:00:28.996Z,13.27
2018-04-06T12:01:29.424Z,13.01
2018-04-06T12:02:29.876Z,13.54
2018-04-06T12:03:30.316Z,13.81
2018-04-06T12:04:51.905Z,13.90
2018-04-06T12:07:26.063Z,12.90
2018-04-06T12:08:04.740Z,12.90
2018-04-06T12:13:11.760Z,12.46
2018-04-06T12:15:40.978Z,12.67
2018-04-06T12:16:22.627Z,12.82
2018-04-06T12:18:48.480Z,12.28
2018-04-06T12:20:31.920Z,12.46
2018-04-06T12:29:11.243Z,13.18
2018-04-06T12:37:46.762Z,13.18
2018-04-06T12:38:28.443Z,13.23
2018-04-06T12:42:02.360Z,12.62
2018-04-06T12:44:19.642Z,13.13
2018-04-06T12:45:12.228Z,13.28
2018-04-06T12:49:11.137Z,13.39
2018-04-06T12:49:40.322Z,13.41
2018-04-06T12:51:34.882Z,13.25
2018-04-06T12:55:33.942Z,13.16
2018-04-06T12:58:17.694Z,13.33
2018-04-06T12:58:38.852Z,13.54
2018-04-06T13:05:25.968Z,13.12
2018-04-06T13:09:39.256Z,13.23
2018-04-06T13:12:51.263Z,13.54
2018-04-06T13:13:51.698Z,13.65
2018-04-06T13:15:46.264Z,13.81
2018-04-06T13:16:46.682Z,13.67
2018-04-06T13:18:41.299Z,13.00
2018-04-06T13:19:41.745Z,13.12
2018-04-06T13:21:36.299Z,13.18
2018-04-06T13:22:36.721Z,13.20
2018-04-06T13:24:31.308Z,13.23
2018-04-06T13:25:31.745Z,13.15
2018-04-06T13:27:26.294Z,13.39
2018-04-06T13:28:26.734Z,13.39
2018-04-06T13:30:21.321Z,13.47
2018-04-06T13:31:21.754Z,13.23
2018-04-06T13:33:17.291Z,13.37
2018-04-06T13:34:17.716Z,13.23
2018-04-06T13:36:12.337Z,13.23
2018-04-06T13:37:12.802Z,13.37
2018-04-06T13:39:08.266Z,13.33
2018-04-06T13:40:08.705Z,13.25
2018-04-06T13:42:03.285Z,13.38
2018-04-06T13:43:03.696Z,13.33
2018-04-06T13:44:58.304Z,13.46
2018-04-06T13:45:58.730Z,13.46
2018-04-06T13:47:53.283Z,13.38
2018-04-06T13:48:53.733Z,13.41
2018-04-06T13:50:48.354Z,13.19
2018-04-06T13:51:48.780Z,13.28
2018-04-06T13:53:43.326Z,13.57
2018-04-06T13:54:43.767Z,13.70
2018-04-06T13:56:38.402Z,13.93
2018-04-06T13:57:38.836Z,13.93
2018-04-06T13:59:33.390Z,13.96
2018-04-06T14:00:33.833Z,14.07
2018-04-06T14:02:29.364Z,13.99
2018-04-06T14:03:29.782Z,13.96
2018-04-06T14:05:24.391Z,13.97
2018-04-06T14:06:24.822Z,13.96
2018-04-06T14:08:19.456Z,13.63
2018-04-06T14:09:19.932Z,13.74
2018-04-06T14:11:14.452Z,13.78
2018-04-06T14:12:14.845Z,13.97
2018-04-06T14:14:09.398Z,13.67
2018-04-06T14:15:09.860Z,13.93
2018-04-06T14:16:10.300Z,13.89
2018-04-06T14:17:10.708Z,13.90
2018-04-06T14:18:11.124Z,14.07
2018-04-06T14:19:11.563Z,14.11
2018-04-06T14:20:11.991Z,14.05
2018-04-06T14:21:12.430Z,14.18
2018-04-06T14:22:12.864Z,14.14
2018-04-06T14:23:13.281Z,14.14
2018-04-06T14:24:13.711Z,14.15
2018-04-06T14:25:14.157Z,13.74
2018-04-06T14:26:14.573Z,13.81
2018-04-06T14:27:15.018Z,14.05
2018-04-06T14:28:15.447Z,14.22
2018-04-06T14:29:15.878Z,14.04
2018-04-06T14:30:16.309Z,13.89
2018-04-06T14:31:16.778Z,13.89
2018-04-06T14:32:17.181Z,14.14
2018-04-06T14:33:17.605Z,14.08
2018-04-06T14:34:18.036Z,14.07
2018-04-06T14:35:18.466Z,13.79
2018-04-06T14:36:18.897Z,14.10
2018-04-06T14:37:19.340Z,14.26
2018-04-06T14:38:19.767Z,14.37
2018-04-06T14:39:20.221Z,14.58
2018-04-06T14:40:20.624Z,14.53
2018-04-06T14:41:21.054Z,14.35
2018-04-06T14:42:21.494Z,13.89
2018-04-06T14:43:21.983Z,13.93
2018-04-06T14:44:22.354Z,13.79
2018-04-06T14:45:22.789Z,13.60
2018-04-06T14:46:23.220Z,13.79
2018-04-06T14:47:23.652Z,14.04
2018-04-06T14:48:24.175Z,14.32
2018-04-06T14:49:24.526Z,14.33
2018-04-06T14:50:24.948Z,14.36
2018-04-06T14:51:25.377Z,14.45
2018-04-06T14:52:25.808Z,14.54
2018-04-06T14:53:26.247Z,14.44
2018-04-06T14:54:26.669Z,14.36
2018-04-06T14:55:27.103Z,14.36
2018-04-06T14:56:27.556Z,14.10
2018-04-06T14:57:27.974Z,14.07
2018-04-06T14:58:28.394Z,13.87
2018-04-06T14:59:28.831Z,13.81
2018-04-06T15:00:29.262Z,13.93
2018-04-06T15:01:29.691Z,13.89
2018-04-06T15:02:30.138Z,13.77
2018-04-06T15:03:30.565Z,13.71
2018-04-06T15:04:30.990Z,13.72
2018-04-06T15:05:31.453Z,13.95
2018-04-06T15:06:31.862Z,14.14
2018-04-06T15:07:32.285Z,13.75
2018-04-06T15:08:32.722Z,13.71
2018-04-06T15:09:33.159Z,13.92
2018-04-06T15:10:33.585Z,14.05
2018-04-06T15:11:34.019Z,14.22
2018-04-06T15:12:34.449Z,14.18
2018-04-06T15:13:34.880Z,14.17
2018-04-06T15:14:35.313Z,14.32
2018-04-06T15:15:35.742Z,14.44
2018-04-06T15:16:36.179Z,14.47
2018-04-06T15:17:36.613Z,14.33
2018-04-06T15:18:37.049Z,14.12
2018-04-06T15:19:37.480Z,14.30
2018-04-06T15:20:37.923Z,14.30
2018-04-06T15:21:38.342Z,14.43
2018-04-06T15:22:38.781Z,14.50
2018-04-06T15:23:39.203Z,14.59
2018-04-06T15:24:39.637Z,14.69
2018-04-06T15:25:40.071Z,14.73
2018-04-06T15:26:40.500Z,14.77
2018-04-06T15:27:40.942Z,14.73
2018-04-06T15:28:41.381Z,14.50
2018-04-06T15:29:41.802Z,14.59
2018-04-06T15:30:42.235Z,14.63
2018-04-06T15:31:42.667Z,14.32
2018-04-06T15:32:43.100Z,14.20
2018-04-06T15:33:43.529Z,14.40
2018-04-06T15:34:43.974Z,14.32
2018-04-06T15:35:44.396Z,14.12
2018-04-06T15:36:44.825Z,14.33
2018-04-06T15:37:45.259Z,14.36
2018-04-06T15:38:45.695Z,14.40
2018-04-06T15:39:46.119Z,14.33
2018-04-06T15:40:46.558Z,14.33
2018-04-06T15:41:47.009Z,14.18
2018-04-06T15:42:47.423Z,14.22
2018-04-06T15:43:47.853Z,14.12
2018-04-06T15:44:48.291Z,14.17
2018-04-06T15:45:48.715Z,14.33
2018-04-06T15:46:49.152Z,14.35
2018-04-06T15:47:49.585Z,14.41
2018-04-06T15:48:50.016Z,14.48
2018-04-06T15:49:50.452Z,14.41
2018-04-06T15:50:50.875Z,14.44
2018-04-06T15:51:51.303Z,14.51
2018-04-06T15:52:51.744Z,14.48
2018-04-06T15:53:52.180Z,14.51
2018-04-06T15:54:52.602Z,14.44
2018-04-06T15:55:53.046Z,14.48
2018-04-06T15:56:53.469Z,14.54
2018-04-06T15:57:53.902Z,14.55
2018-04-06T15:58:54.328Z,14.51